This is the latest recevied weather packets stored in our database for station/object N5ATR. If no packets are shown the sender has not sent any weather packets the latest 10 day(s).
| Time | Temp. | Humidity | Pressure | Rain* | Wind** | Luminosity | Snow |
|---|---|---|---|---|---|---|---|
| 1778021370 | 11.67° C | 62% | 1009.6 hPa | 0 mm | - | 425 W/m² | - |
| 1778021068 | 12.22° C | 60% | 1009.6 hPa | 0 mm | - | 378 W/m² | - |
| 1778020765 | 11.67° C | 64% | 1009.8 hPa | 0 mm | - | 441 W/m² | - |
| 1778020461 | 11.67° C | 64% | 1010.3 hPa | 0 mm | - | 290 W/m² | - |
| 1778020158 | 11.11° C | 64% | 1010.3 hPa | 0 mm | - | 500 W/m² | - |
| 1778019854 | 11.11° C | 59% | 1010.2 hPa | 0 mm | - | 258 W/m² | - |
| 1778019550 | 12.22° C | 56% | 1010 hPa | 0 mm | - | 352 W/m² | - |
| 1778019248 | 11.67° C | 60% | 1010.2 hPa | 0 mm | - | 239 W/m² | - |
| 1778018945 | 12.22° C | 57% | 1010.1 hPa | 0 mm | - | 257 W/m² | - |
| 1778018641 | 12.22° C | 57% | 1010.1 hPa | 0 mm | - | 242 W/m² | - |
| 1778018339 | 12.22° C | 56% | 1010.1 hPa | 0 mm | - | 177 W/m² | - |
| 1778018037 | 12.78° C | 58% | 1010.1 hPa | 0 mm | - | 202 W/m² | - |
| 1778017735 | 13.33° C | 57% | 1010.1 hPa | 0 mm | - | 173 W/m² | - |
| 1778017432 | 13.89° C | 55% | 1009.8 hPa | 0 mm | - | 545 W/m² | - |
| 1778017129 | 13.89° C | 55% | 1010 hPa | 0 mm | - | 429 W/m² | - |
| 1778016827 | 13.33° C | 56% | 1010.2 hPa | 0 mm | - | 430 W/m² | - |
| 1778016523 | 13.33° C | 58% | 1010.5 hPa | 0 mm | - | 182 W/m² | - |
| 1778016220 | 14.44° C | 54% | 1010.3 hPa | 0 mm | - | 196 W/m² | - |
| 1778015916 | 14.44° C | 54% | 1010.3 hPa | 0 mm | - | 709 W/m² | - |
| 1778015614 | 12.78° C | 57% | 1010.2 hPa | 0 mm | - | 311 W/m² | - |
| 1778015310 | 12.78° C | 58% | 1010.3 hPa | 0 mm | - | 455 W/m² | - |
| 1778015007 | 12.78° C | 58% | 1010 hPa | 0 mm | - | 213 W/m² | - |
| 1778014704 | 12.78° C | 60% | 1010.3 hPa | 0 mm | - | 227 W/m² | - |
| 1778014402 | 13.89° C | 58% | 1010.3 hPa | 0 mm | - | 569 W/m² | - |
| 1778014099 | 12.22° C | 62% | 1010.8 hPa | 0 mm | - | 297 W/m² | - |
* Rain latest hour (hover to see other rain measurements)
** Current wind speed in m/s (hover to see current wind gust speed)